createdAt,value
2022-12-26T00:01:10.321Z,98281.81
2022-12-26T00:03:37.667Z,98289.63
2022-12-26T00:06:04.717Z,98286.47
2022-12-26T00:08:31.271Z,98283.72
2022-12-26T00:10:58.878Z,98286.84
2022-12-26T00:13:39.195Z,98292.00
2022-12-26T00:16:19.030Z,98284.16
2022-12-26T00:21:23.929Z,98292.00
2022-12-26T00:23:50.571Z,98304.84
2022-12-26T00:26:19.691Z,98295.91
2022-12-26T00:28:46.665Z,98305.72
2022-12-26T00:31:18.894Z,98304.50
2022-12-26T00:33:46.274Z,98309.19
2022-12-26T00:36:17.314Z,98311.25
2022-12-26T00:38:45.131Z,98312.44
2022-12-26T00:41:14.385Z,98312.81
2022-12-26T00:43:41.366Z,98305.34
2022-12-26T00:46:12.112Z,98306.97
2022-12-26T00:48:38.821Z,98312.03
2022-12-26T00:51:06.478Z,98311.63
2022-12-26T00:53:33.790Z,98315.53
2022-12-26T00:56:00.427Z,98307.75
2022-12-26T00:58:27.311Z,98307.69
2022-12-26T01:00:54.753Z,98303.41
2022-12-26T01:03:21.503Z,98299.53
2022-12-26T01:05:51.273Z,98304.59
2022-12-26T01:08:19.770Z,98321.72
2022-12-26T01:10:51.107Z,98311.56
2022-12-26T01:13:17.722Z,98305.69
2022-12-26T01:15:53.019Z,98299.13
2022-12-26T01:18:20.382Z,98303.09
2022-12-26T01:20:47.993Z,98298.34
2022-12-26T01:23:15.254Z,98304.13
2022-12-26T01:30:52.660Z,98320.75
2022-12-26T01:33:19.378Z,98323.75
2022-12-26T01:35:50.969Z,98315.88
2022-12-26T01:38:17.724Z,98313.56
2022-12-26T01:40:44.875Z,98314.34
2022-12-26T01:43:13.652Z,98317.81
2022-12-26T01:45:40.863Z,98315.88
2022-12-26T01:48:26.660Z,98320.13
2022-12-26T01:50:59.928Z,98330.41
2022-12-26T01:53:34.751Z,98314.88
2022-12-26T01:56:08.498Z,98326.47
2022-12-26T01:58:41.505Z,98320.00
2022-12-26T02:01:10.421Z,98325.03
2022-12-26T02:03:59.886Z,98324.38
2022-12-26T02:06:26.880Z,98314.91
2022-12-26T02:08:54.189Z,98319.56
2022-12-26T02:11:36.381Z,98317.66
2022-12-26T02:14:06.753Z,98310.16
2022-12-26T02:16:35.016Z,98319.63
2022-12-26T02:19:02.326Z,98303.13
2022-12-26T02:21:31.928Z,98316.34
2022-12-26T02:24:04.537Z,98300.31
2022-12-26T02:26:36.957Z,98313.03
2022-12-26T02:29:41.764Z,98308.44
2022-12-26T02:32:26.656Z,98301.97
2022-12-26T02:35:24.862Z,98305.53
2022-12-26T02:38:09.049Z,98314.19
2022-12-26T02:40:53.158Z,98319.78
2022-12-26T02:43:29.064Z,98326.88
2022-12-26T02:47:05.268Z,98323.09
2022-12-26T02:50:02.448Z,98318.53
2022-12-26T02:53:06.115Z,98328.38
2022-12-26T02:55:54.424Z,98328.78
2022-12-26T02:58:44.289Z,98317.56
2022-12-26T03:01:47.968Z,98317.09
2022-12-26T03:04:36.398Z,98321.84
2022-12-26T03:07:25.470Z,98319.53
2022-12-26T03:10:25.581Z,98332.88
2022-12-26T03:13:12.916Z,98334.41
2022-12-26T03:16:11.104Z,98332.97
2022-12-26T03:18:58.831Z,98330.97
2022-12-26T03:21:33.013Z,98329.34
2022-12-26T03:24:00.124Z,98314.91
2022-12-26T03:26:41.239Z,98322.31
2022-12-26T03:29:30.092Z,98316.78
2022-12-26T03:31:57.154Z,98311.72
2022-12-26T03:34:24.776Z,98307.75
2022-12-26T03:37:23.229Z,98303.88
2022-12-26T03:40:49.118Z,98299.19
2022-12-26T03:44:04.214Z,98303.03
2022-12-26T03:47:17.355Z,98299.03
2022-12-26T03:50:10.477Z,98308.03
2022-12-26T03:53:03.893Z,98303.38
2022-12-26T03:55:52.042Z,98306.91
2022-12-26T03:58:49.174Z,98313.97
2022-12-26T04:01:38.779Z,98302.22
2022-12-26T04:04:28.760Z,98304.22
2022-12-26T04:10:32.864Z,98299.59
2022-12-26T04:13:21.358Z,98295.31
2022-12-26T04:16:12.893Z,98308.59
2022-12-26T04:19:06.675Z,98307.75
2022-12-26T04:22:03.886Z,98305.50
2022-12-26T04:24:55.154Z,98318.41
2022-12-26T04:27:44.868Z,98321.44
2022-12-26T04:30:30.327Z,98330.91
2022-12-26T04:33:23.829Z,98325.00
2022-12-26T04:36:13.952Z,98318.78
2022-12-26T04:39:10.259Z,98326.97
2022-12-26T04:41:56.916Z,98319.53
2022-12-26T04:44:24.630Z,98330.56
2022-12-26T04:46:53.655Z,98318.06
2022-12-26T04:49:39.424Z,98328.25
2022-12-26T04:52:09.920Z,98319.59
2022-12-26T04:54:36.897Z,98328.56
2022-12-26T04:57:04.125Z,98315.31
2022-12-26T04:59:30.935Z,98312.56
2022-12-26T05:05:08.913Z,98316.47
2022-12-26T05:07:55.908Z,98320.41
2022-12-26T05:10:25.792Z,98328.16
2022-12-26T05:12:52.963Z,98324.66
2022-12-26T05:15:19.601Z,98335.63
2022-12-26T05:18:04.988Z,98323.13
2022-12-26T05:20:50.414Z,98327.75
2022-12-26T05:23:41.568Z,98321.91
2022-12-26T05:26:52.797Z,98315.22
2022-12-26T05:29:19.529Z,98320.38
2022-12-26T05:31:46.140Z,98309.44
2022-12-26T05:34:16.112Z,98317.25
2022-12-26T05:36:47.573Z,98306.69
2022-12-26T05:39:14.620Z,98312.16
2022-12-26T05:41:41.237Z,98313.31
2022-12-26T05:44:08.853Z,98320.03
2022-12-26T05:46:36.436Z,98314.13
2022-12-26T05:49:04.766Z,98325.09
2022-12-26T05:51:31.982Z,98327.41
2022-12-26T05:53:59.659Z,98322.69
2022-12-26T05:56:26.381Z,98331.31
2022-12-26T05:59:00.539Z,98339.22
2022-12-26T06:01:29.255Z,98338.00
2022-12-26T06:03:58.398Z,98339.63
2022-12-26T06:06:26.358Z,98331.06
2022-12-26T06:08:54.690Z,98330.25
2022-12-26T06:11:22.328Z,98338.97
2022-12-26T06:13:49.009Z,98345.53
2022-12-26T06:16:17.665Z,98340.06
2022-12-26T06:18:45.301Z,98339.66
2022-12-26T06:21:14.591Z,98325.88
2022-12-26T06:23:41.845Z,98335.75
2022-12-26T06:26:10.464Z,98333.81
2022-12-26T06:28:37.876Z,98333.75
2022-12-26T06:31:14.694Z,98335.75
2022-12-26T06:33:42.136Z,98333.41
2022-12-26T06:36:20.085Z,98324.34
2022-12-26T06:38:46.782Z,98331.75
2022-12-26T06:41:17.739Z,98338.44
2022-12-26T06:43:44.460Z,98334.09
2022-12-26T06:46:17.093Z,98323.09
2022-12-26T06:48:44.174Z,98330.53
2022-12-26T06:51:16.122Z,98340.31
2022-12-26T06:53:43.098Z,98341.09
2022-12-26T06:56:13.084Z,98340.38
2022-12-26T06:58:40.085Z,98338.31
2022-12-26T07:01:12.824Z,98338.22
2022-12-26T07:03:46.631Z,98337.44
2022-12-26T07:06:27.544Z,98332.84
2022-12-26T07:08:57.804Z,98336.69
2022-12-26T07:11:27.077Z,98341.91
2022-12-26T07:13:54.726Z,98341.09
2022-12-26T07:16:22.271Z,98344.56
2022-12-26T07:18:49.203Z,98342.69
2022-12-26T07:21:16.424Z,98343.81
2022-12-26T07:23:43.565Z,98341.00
2022-12-26T07:26:10.694Z,98350.81
2022-12-26T07:28:37.918Z,98335.63
2022-12-26T07:31:05.085Z,98343.00
2022-12-26T07:33:32.220Z,98354.78
2022-12-26T07:36:04.597Z,98358.72
2022-12-26T07:38:33.006Z,98354.47
2022-12-26T07:41:00.013Z,98351.91
2022-12-26T07:43:26.686Z,98354.19
2022-12-26T07:45:53.410Z,98350.16
2022-12-26T07:48:20.355Z,98349.06
2022-12-26T07:53:20.719Z,98361.84
2022-12-26T07:55:48.517Z,98360.75
2022-12-26T07:58:15.056Z,98352.78
2022-12-26T08:00:41.689Z,98364.50
2022-12-26T08:03:09.578Z,98359.47
2022-12-26T08:05:36.566Z,98357.00
2022-12-26T08:08:03.216Z,98361.31
2022-12-26T08:10:29.887Z,98364.75
2022-12-26T08:12:56.428Z,98372.56
2022-12-26T08:15:23.051Z,98370.16
2022-12-26T08:17:49.590Z,98357.53
2022-12-26T08:20:16.327Z,98356.78
2022-12-26T08:22:42.861Z,98365.00
2022-12-26T08:25:10.001Z,98366.53
2022-12-26T08:27:36.760Z,98367.28
2022-12-26T08:30:03.809Z,98362.13
2022-12-26T08:32:30.465Z,98374.25
2022-12-26T08:34:57.348Z,98387.03
2022-12-26T08:37:26.765Z,98384.75
2022-12-26T08:39:53.798Z,98387.03
2022-12-26T08:42:21.283Z,98404.66
2022-12-26T08:44:48.186Z,98402.72
2022-12-26T08:47:15.020Z,98403.47
2022-12-26T08:49:41.644Z,98409.69
2022-12-26T08:52:08.576Z,98413.19
2022-12-26T08:54:35.362Z,98422.16
2022-12-26T08:57:01.932Z,98428.84
2022-12-26T08:59:28.547Z,98440.09
2022-12-26T09:01:55.199Z,98434.19
2022-12-26T09:04:21.833Z,98442.16
2022-12-26T09:06:48.406Z,98454.94
2022-12-26T09:09:15.022Z,98462.72
2022-12-26T09:11:42.534Z,98465.56
2022-12-26T09:14:09.265Z,98482.19
2022-12-26T09:16:50.397Z,98488.84
2022-12-26T09:19:18.508Z,98486.38
2022-12-26T09:21:46.296Z,98484.25
2022-12-26T09:24:15.763Z,98490.91
2022-12-26T09:26:43.150Z,98493.66
2022-12-26T09:29:11.956Z,98497.50
2022-12-26T09:31:38.579Z,98503.28
2022-12-26T09:34:06.761Z,98509.13
2022-12-26T09:36:38.213Z,98503.66
2022-12-26T09:39:05.643Z,98491.34
2022-12-26T09:41:59.937Z,98501.78
2022-12-26T09:45:04.739Z,98503.69
2022-12-26T09:47:56.354Z,98514.16
2022-12-26T09:50:29.561Z,98525.03
2022-12-26T09:53:03.240Z,98523.38
2022-12-26T09:55:29.749Z,98542.94
2022-12-26T09:58:01.371Z,98550.81
2022-12-26T10:00:38.593Z,98548.97
2022-12-26T10:03:05.843Z,98554.28
2022-12-26T10:05:43.275Z,98557.59
2022-12-26T10:08:27.725Z,98554.31
2022-12-26T10:11:02.828Z,98570.50
2022-12-26T10:13:43.785Z,98560.38
2022-12-26T10:16:19.309Z,98561.81
2022-12-26T10:18:58.180Z,98558.28
2022-12-26T10:21:47.730Z,98556.91
2022-12-26T10:24:23.473Z,98553.31
2022-12-26T10:27:03.179Z,98547.06
2022-12-26T10:29:38.821Z,98537.03
2022-12-26T10:32:14.469Z,98541.88
2022-12-26T10:34:47.417Z,98552.38
2022-12-26T10:37:22.479Z,98562.09
2022-12-26T10:39:56.111Z,98565.31
2022-12-26T10:42:36.561Z,98558.28
2022-12-26T10:45:14.634Z,98555.16
2022-12-26T10:47:44.416Z,98557.59
2022-12-26T10:50:25.412Z,98557.75
2022-12-26T10:52:54.153Z,98561.50
2022-12-26T10:55:31.496Z,98569.16
2022-12-26T10:58:12.353Z,98575.94
2022-12-26T11:00:39.087Z,98572.97
2022-12-26T11:03:14.306Z,98575.41
2022-12-26T11:08:43.376Z,98567.88
2022-12-26T11:11:19.956Z,98568.25
2022-12-26T11:14:02.183Z,98573.16
2022-12-26T11:16:32.906Z,98563.31
2022-12-26T11:18:59.672Z,98542.94
2022-12-26T11:21:29.532Z,98539.16
2022-12-26T11:24:19.630Z,98541.47
2022-12-26T11:26:47.245Z,98542.03
2022-12-26T11:29:20.830Z,98519.19
2022-12-26T11:34:53.830Z,98524.16
2022-12-26T11:37:30.544Z,98501.53
2022-12-26T11:39:58.493Z,98507.44
2022-12-26T11:42:26.083Z,98532.31
2022-12-26T11:44:55.678Z,98549.94
2022-12-26T11:47:26.060Z,98545.13
2022-12-26T11:52:38.928Z,98546.16
2022-12-26T11:55:27.283Z,98568.28
2022-12-26T11:58:21.924Z,98540.94
2022-12-26T12:00:51.912Z,98527.63
2022-12-26T12:03:43.692Z,98523.69
2022-12-26T12:06:41.593Z,98526.06
2022-12-26T12:09:42.043Z,98528.41
2022-12-26T12:12:41.756Z,98518.28
2022-12-26T12:15:30.686Z,98514.03
2022-12-26T12:18:39.794Z,98519.13
2022-12-26T12:24:41.672Z,98521.25
2022-12-26T12:27:31.856Z,98533.88
2022-12-26T12:30:22.963Z,98542.00
2022-12-26T12:32:58.165Z,98540.88
2022-12-26T12:36:03.497Z,98530.69
2022-12-26T12:38:34.292Z,98527.56
2022-12-26T12:41:21.168Z,98524.78
2022-12-26T12:44:02.862Z,98525.13
2022-12-26T12:46:45.231Z,98525.88
2022-12-26T12:49:21.194Z,98521.91
2022-12-26T12:52:18.344Z,98513.06
2022-12-26T12:55:00.095Z,98518.41
2022-12-26T12:57:40.472Z,98521.25
2022-12-26T13:00:15.531Z,98523.56
2022-12-26T13:02:58.773Z,98529.75
2022-12-26T13:05:40.674Z,98529.69
2022-12-26T13:08:22.560Z,98530.53
2022-12-26T13:10:54.216Z,98522.41
2022-12-26T13:13:35.223Z,98525.03
2022-12-26T13:16:13.497Z,98522.19
2022-12-26T13:18:48.336Z,98525.25
2022-12-26T13:21:16.010Z,98528.13
2022-12-26T13:24:07.668Z,98521.81
2022-12-26T13:26:44.573Z,98520.72
2022-12-26T13:29:26.104Z,98512.75
2022-12-26T13:31:52.839Z,98504.69
2022-12-26T13:34:21.649Z,98497.31
2022-12-26T13:36:53.364Z,98490.34
2022-12-26T13:39:25.988Z,98493.69
2022-12-26T13:42:15.015Z,98495.34
2022-12-26T13:44:41.768Z,98502.75
2022-12-26T13:47:37.311Z,98499.63
2022-12-26T13:50:55.159Z,98503.16
2022-12-26T13:53:25.128Z,98497.31
2022-12-26T13:55:51.924Z,98499.22
2022-12-26T13:58:39.806Z,98492.94
2022-12-26T14:01:09.491Z,98510.16
2022-12-26T14:04:04.088Z,98520.72
2022-12-26T14:09:28.174Z,98504.31
2022-12-26T14:12:15.955Z,98497.72
2022-12-26T14:15:03.864Z,98497.72
2022-12-26T14:18:05.042Z,98498.41
2022-12-26T14:21:11.180Z,98494.25
2022-12-26T14:24:09.244Z,98503.84
2022-12-26T14:27:00.696Z,98495.38
2022-12-26T14:29:59.323Z,98502.78
2022-12-26T14:35:41.516Z,98490.16
2022-12-26T14:38:28.435Z,98492.91
2022-12-26T14:41:30.644Z,98491.34
2022-12-26T14:43:58.390Z,98483.78
2022-12-26T14:46:30.774Z,98495.28
2022-12-26T14:49:00.866Z,98492.94
2022-12-26T14:51:31.557Z,98502.00
2022-12-26T14:54:23.042Z,98497.41
2022-12-26T14:56:51.302Z,98499.81
2022-12-26T14:59:34.594Z,98484.13
2022-12-26T15:02:28.665Z,98484.44
2022-12-26T15:05:22.926Z,98475.84
2022-12-26T15:08:04.818Z,98480.16
2022-12-26T15:10:56.940Z,98486.03
2022-12-26T15:13:58.355Z,98468.00
2022-12-26T15:16:45.364Z,98471.94
2022-12-26T15:19:47.504Z,98473.47
2022-12-26T15:22:35.390Z,98465.31
2022-12-26T15:25:37.413Z,98468.44
2022-12-26T15:28:15.821Z,98462.41
2022-12-26T15:30:45.312Z,98466.31
2022-12-26T15:33:22.655Z,98472.13
2022-12-26T15:36:16.833Z,98482.28
2022-12-26T15:39:19.500Z,98491.69
2022-12-26T15:41:49.006Z,98492.91
2022-12-26T15:44:37.066Z,98491.59
2022-12-26T15:47:46.781Z,98491.22
2022-12-26T15:50:29.323Z,98492.44
2022-12-26T15:53:05.401Z,98495.59
2022-12-26T15:55:59.376Z,98495.50
2022-12-26T15:58:58.240Z,98483.69
2022-12-26T16:01:44.717Z,98474.69
2022-12-26T16:04:25.478Z,98480.97
2022-12-26T16:07:10.708Z,98487.69
2022-12-26T16:09:49.964Z,98495.75
2022-12-26T16:12:27.397Z,98494.38
2022-12-26T16:15:09.191Z,98486.13
2022-12-26T16:17:40.272Z,98496.03
2022-12-26T16:20:46.233Z,98501.84
2022-12-26T16:23:17.353Z,98499.44
2022-12-26T16:25:50.688Z,98497.09
2022-12-26T16:28:29.251Z,98486.13
2022-12-26T16:30:57.717Z,98490.38
2022-12-26T16:33:28.979Z,98488.88
2022-12-26T16:36:00.819Z,98490.78
2022-12-26T16:38:32.251Z,98503.69
2022-12-26T16:41:00.788Z,98507.25
2022-12-26T16:43:32.080Z,98507.72
2022-12-26T16:46:03.821Z,98500.13
2022-12-26T16:48:32.971Z,98502.09
2022-12-26T16:51:06.323Z,98500.19
2022-12-26T16:53:35.637Z,98511.53
2022-12-26T16:56:29.195Z,98499.34
2022-12-26T16:59:16.859Z,98506.81
2022-12-26T17:01:51.540Z,98511.00
2022-12-26T17:04:23.091Z,98515.38
2022-12-26T17:07:09.185Z,98506.44
2022-12-26T17:09:45.419Z,98510.72
2022-12-26T17:12:39.180Z,98507.97
2022-12-26T17:15:07.965Z,98502.53
2022-12-26T17:17:36.886Z,98499.34
2022-12-26T17:22:56.878Z,98506.38
2022-12-26T17:28:17.910Z,98522.78
2022-12-26T17:30:49.792Z,98525.94
2022-12-26T17:33:26.175Z,98531.28
2022-12-26T17:38:45.917Z,98527.22
2022-12-26T17:41:16.563Z,98538.06
2022-12-26T17:43:43.721Z,98539.22
2022-12-26T17:46:14.130Z,98540.38
2022-12-26T17:48:42.061Z,98537.28
2022-12-26T17:51:14.630Z,98525.81
2022-12-26T17:53:43.590Z,98545.66
2022-12-26T17:56:15.927Z,98548.72
2022-12-26T17:58:43.960Z,98565.53
2022-12-26T18:01:12.720Z,98566.75
2022-12-26T18:03:41.882Z,98588.09
2022-12-26T18:06:14.678Z,98589.19
2022-12-26T18:08:41.743Z,98571.66
2022-12-26T18:11:11.386Z,98564.69
2022-12-26T18:13:38.758Z,98576.38
2022-12-26T18:16:06.664Z,98583.34
2022-12-26T18:18:37.381Z,98572.94
2022-12-26T18:21:06.050Z,98576.81
2022-12-26T18:26:09.290Z,98585.50
2022-12-26T18:28:35.925Z,98590.00
2022-12-26T18:31:02.555Z,98592.00
2022-12-26T18:33:29.194Z,98586.03
2022-12-26T18:35:56.097Z,98594.75
2022-12-26T18:38:22.824Z,98603.56
2022-12-26T18:40:53.552Z,98618.00
2022-12-26T18:43:20.520Z,98609.72
2022-12-26T18:45:47.243Z,98615.94
2022-12-26T18:48:16.064Z,98614.69
2022-12-26T18:50:43.980Z,98601.06
2022-12-26T18:53:11.076Z,98613.41
2022-12-26T18:55:38.289Z,98617.03
2022-12-26T18:58:05.233Z,98635.41
2022-12-26T19:00:31.809Z,98630.31
2022-12-26T19:02:58.836Z,98633.75
2022-12-26T19:05:29.245Z,98648.19
2022-12-26T19:07:55.845Z,98665.16
2022-12-26T19:10:26.180Z,98667.09
2022-12-26T19:12:53.219Z,98676.47
2022-12-26T19:15:20.132Z,98662.94
2022-12-26T19:17:46.770Z,98660.56
2022-12-26T19:20:19.511Z,98683.16
2022-12-26T19:22:46.749Z,98690.31
2022-12-26T19:25:13.944Z,98688.41
2022-12-26T19:27:40.738Z,98683.75
2022-12-26T19:30:08.468Z,98698.09
2022-12-26T19:32:35.197Z,98701.16
2022-12-26T19:37:35.586Z,98722.81
2022-12-26T19:40:03.118Z,98723.13
2022-12-26T19:42:29.808Z,98735.28
2022-12-26T19:44:56.470Z,98739.66
2022-12-26T19:47:23.379Z,98744.16
2022-12-26T19:49:49.950Z,98745.31
2022-12-26T19:52:16.696Z,98758.72
2022-12-26T19:54:43.328Z,98759.09
2022-12-26T19:57:09.913Z,98759.50
2022-12-26T19:59:36.689Z,98772.44
2022-12-26T20:02:04.119Z,98781.66
2022-12-26T20:04:30.995Z,98799.59
2022-12-26T20:07:01.179Z,98802.56
2022-12-26T20:09:27.800Z,98807.81
2022-12-26T20:11:54.473Z,98815.72
2022-12-26T20:14:22.218Z,98824.16
2022-12-26T20:17:08.855Z,98814.41
2022-12-26T20:19:37.013Z,98817.81
2022-12-26T20:22:04.624Z,98832.34
2022-12-26T20:24:31.307Z,98828.09
2022-12-26T20:26:58.138Z,98833.94
2022-12-26T20:32:04.737Z,98844.63
2022-12-26T20:34:31.418Z,98844.78
2022-12-26T20:36:58.000Z,98850.13
2022-12-26T20:39:25.747Z,98846.91
2022-12-26T20:41:52.419Z,98858.72
2022-12-26T20:44:19.424Z,98862.34
2022-12-26T20:46:46.462Z,98860.41
2022-12-26T20:49:13.176Z,98860.66
2022-12-26T20:51:41.500Z,98869.59
2022-12-26T20:54:09.593Z,98878.22
2022-12-26T20:56:37.512Z,98879.69
2022-12-26T20:59:05.591Z,98879.38
2022-12-26T21:01:32.336Z,98877.53
2022-12-26T21:03:59.124Z,98892.53
2022-12-26T21:06:29.307Z,98896.50
2022-12-26T21:08:56.633Z,98900.34
2022-12-26T21:11:49.407Z,98908.63
2022-12-26T21:14:20.863Z,98919.19
2022-12-26T21:16:49.539Z,98920.06
2022-12-26T21:19:17.241Z,98929.28
2022-12-26T21:21:46.737Z,98941.19
2022-12-26T21:24:22.586Z,98935.84
2022-12-26T21:26:49.893Z,98936.53
2022-12-26T21:29:39.004Z,98946.88
2022-12-26T21:32:06.484Z,98940.94
2022-12-26T21:34:34.190Z,98939.25
2022-12-26T21:37:19.701Z,98933.81
2022-12-26T21:39:47.567Z,98947.75
2022-12-26T21:42:14.420Z,98956.00
2022-12-26T21:44:41.161Z,98962.91
2022-12-26T21:47:10.647Z,98969.81
2022-12-26T21:49:37.555Z,98980.56
2022-12-26T21:52:06.200Z,98991.66
2022-12-26T21:54:52.402Z,98993.47
2022-12-26T21:57:19.535Z,98987.09
2022-12-26T21:59:58.915Z,99000.97
2022-12-26T22:02:52.566Z,99008.78
2022-12-26T22:05:22.007Z,99002.16
2022-12-26T22:07:59.337Z,99019.50
2022-12-26T22:10:46.946Z,99013.84
2022-12-26T22:13:13.519Z,99024.59
2022-12-26T22:16:07.058Z,99028.13
2022-12-26T22:18:40.536Z,99025.06
2022-12-26T22:21:15.353Z,99027.31
2022-12-26T22:23:43.272Z,99037.16
2022-12-26T22:26:12.188Z,99039.56
2022-12-26T22:28:39.313Z,99042.13
2022-12-26T22:31:07.006Z,99052.41
2022-12-26T22:33:34.043Z,99044.13
2022-12-26T22:36:05.702Z,99042.56
2022-12-26T22:38:32.347Z,99051.31
2022-12-26T22:40:59.990Z,99051.50
2022-12-26T22:43:27.395Z,99049.25
2022-12-26T22:45:54.850Z,99055.81
2022-12-26T22:48:22.583Z,99069.06
2022-12-26T22:50:52.840Z,99068.00
2022-12-26T22:53:20.001Z,99065.28
2022-12-26T22:55:49.007Z,99059.97
2022-12-26T22:58:17.204Z,99073.97
2022-12-26T23:00:45.238Z,99065.69
2022-12-26T23:03:12.620Z,99072.03
2022-12-26T23:05:41.855Z,99075.50
2022-12-26T23:08:14.824Z,99084.31
2022-12-26T23:10:42.301Z,99075.38
2022-12-26T23:13:12.873Z,99082.78
2022-12-26T23:15:54.637Z,99087.16
2022-12-26T23:18:57.312Z,99086.03
2022-12-26T23:21:42.127Z,99089.00
2022-12-26T23:24:14.732Z,99095.59
2022-12-26T23:26:42.972Z,99090.81
2022-12-26T23:29:31.265Z,99099.63
2022-12-26T23:31:58.320Z,99113.13
2022-12-26T23:37:04.273Z,99125.41
2022-12-26T23:39:30.905Z,99120.97
2022-12-26T23:41:57.493Z,99120.00
2022-12-26T23:44:24.112Z,99133.47
2022-12-26T23:46:50.711Z,99138.44
2022-12-26T23:49:17.354Z,99147.13
2022-12-26T23:51:43.947Z,99139.97
2022-12-26T23:54:10.914Z,99149.66
2022-12-26T23:56:37.495Z,99148.56
2022-12-26T23:59:05.406Z,99155.66
